ADDS METAR Data INFO
IDs: Format: Raw Decoded Include TAF

Data at: 2040 UTC 20 Jul 2018

KSLN 201953Z 07013KT 10SM CLR 33/21 A2990 RMK AO2 LTG DSNT N AND NW SLP110 T03280206
KSLN 201853Z 05013G20KT 10SM CLR 33/22 A2990 RMK AO2 SLP110 T03330222
KSLN 201753Z 07011KT 10SM CLR 34/20 A2990 RMK AO2 SLP108 T03390200 10339 20233 55000
KSLN 201653Z 09007KT 10SM CLR 33/21 A2989 RMK AO2 SLP105 T03280211
KSLN 201553Z 11007KT 10SM CLR 31/22 A2989 RMK AO2 SLP107 T03060217
KSLN 201453Z 13007KT 10SM CLR 28/21 A2990 RMK AO2 SLP110 T02830211 51006
KSLN 201353Z 09006KT 10SM CLR 26/21 A2990 RMK AO2 SLP108 T02610211
KSLN 201253Z 05005KT 10SM CLR 24/21 A2989 RMK AO2 SLP106 T02440206
KSLN 201153Z 03004KT 10SM CLR 23/21 A2988 RMK AO2 SLP104 70020 T02330206 10261 20228 53006
KSLN 201053Z AUTO 08003KT 10SM CLR 24/21 A2987 RMK AO2 SLP099 T02390206
KSLN 200953Z AUTO 00000KT 10SM CLR 24/21 A2986 RMK AO2 SLP096 T02390206
KSLN 200853Z AUTO 00000KT 10SM CLR 24/21 A2986 RMK AO2 SLP097 T02440206 51002
KSLN 200753Z AUTO 09004KT 10SM CLR 26/20 A2986 RMK AO2 SLP098 T02610200
KSLN 200653Z AUTO 15003KT 10SM CLR 26/21 A2987 RMK AO2 SLP101 T02560206
KSLN 200553Z AUTO 11007KT 10SM CLR 26/22 A2986 RMK AO2 SLP093 T02610217 10317 20256 403500222 56001
KSLN 200453Z AUTO 03005KT 10SM CLR 27/22 A2986 RMK AO2 SLP093 T02670217
KSLN 200353Z 11005KT 10SM CLR 28/22 A2985 RMK AO2 SLP092 T02780217
KSLN 200253Z 15005KT 10SM CLR 27/23 A2986 RMK AO2 SLP095 T02720233 53011
KSLN 200153Z 00000KT 10SM CLR 30/22 A2984 RMK AO2 SLP089 T03000222
KSLN 200053Z 13003KT 10SM CLR 31/21 A2983 RMK AO2 SLP086 T03110211
KSLN 192353Z 07003KT 10SM CLR 32/21 A2983 RMK AO2 SLP084 60020 T03170206 10339 20244 55009
KSLN 192253Z 01004KT 10SM CLR 32/22 A2982 RMK AO2 SLP084 T03170217
KSLN 192153Z 18003KT 10SM CLR 32/19 A2984 RMK AO2 SLP088 T03220194
KSLN 192053Z 20004KT 10SM CLR 31/21 A2986 RMK AO2 SLP094 60020 T03060206 50005
KSLN 191953Z 03009KT 10SM FEW049 26/21 A2988 RMK AO2 WSHFT 1840 RAE43 SLP105 P0000 T02560211
KSLN 191936Z 01016KT 10SM -RA FEW050 SCT090 SCT110 24/21 A2990 RMK AO2 WSHFT 1840 LTG DSNT NE AND E P0000 T02440211
KSLN 191900Z 01013KT 10SM VCTS -RA FEW090 SCT110 25/22 A2990 RMK AO2 WSHFT 1840 LTG DSNT N-SE P0000 T02500222
KSLN 191853Z 36017KT 7SM VCTS -RA FEW095 SCT110 26/22 A2991 RMK AO2 PK WND 36040/1815 WSHFT 1811 LTG DSNT N-SE RAB14E33B53 TSB06E37 SLP116 TS E MOV SE P0020 T02610222
KSLN 191843Z 01015KT 7SM VCTS FEW090 FEW110 27/21 A2990 RMK AO2 PK WND 36040/1815 WSHFT 1811 LTG DSNT N-SE RAB14E33 TSB06E37 TS E MOV SE P0020 T02720206
KSLN 191831Z 09009G16KT 050V110 7SM -TSRA FEW060 FEW090 SCT110 27/19 A2986 RMK AO2 PK WND 36040/1815 WSHFT 1811 LTG DSNT ALQDS RAB14 TSB06 TS E MOV SE P0020 T02670189
KSLN 191824Z 08011G40KT 7SM -TSRA SQ FEW034 SCT090 BKN110 26/20 A2986 RMK AO2 PK WND 36040/1815 WSHFT 1810 LTG DSNT NW-NE RAB14 TSB06 TS E MOV SE P0020 T02560200
KSLN 191817Z 36032G40KT 2SM +TSRA SQ FEW034 FEW060 BKN110 29/22 A2988 RMK AO2 PK WND 36040/1815 LTG DSNT N AND NW RAB14 TSB06 TS N MOV SE P0017 T02890222
KSLN 191812Z 32012KT 10SM TS SCT110 33/21 A2988 RMK AO2 LTG DSNT N AND NW TSB06 PRESRR TS N MOV SE T03330206
KSLN 191753Z 00000KT 10SM VCTS CLR 34/20 A2984 RMK AO2 LTG DSNT N AND NW SLP087 T03390200 10350 20222 58011
KSLN 191653Z 30007KT 10SM CLR 34/21 A2985 RMK AO2 SLP092 T03390206
KSLN 191553Z 24009KT 10SM CLR 32/20 A2987 RMK AO2 SLP096 T03220200
KSLN 191453Z 26007KT 220V290 10SM CLR 30/21 A2987 RMK AO2 SLP100 T03000206 50002
KSLN 191353Z 21008KT 10SM CLR 28/22 A2988 RMK AO2 SLP100 T02780217
KSLN 191253Z 18004KT 10SM CLR 25/23 A2987 RMK AO2 SLP100 T02500233
KSLN 191153Z 16004KT 10SM CLR 22/22 A2987 RMK AO2 SLP100 T02220222 10261 20222 56004
KSLN 191053Z AUTO 15004KT 10SM CLR 23/22 A2987 RMK AO2 SLP099 T02280222
KSLN 190953Z AUTO 18004KT 9SM CLR 22/22 A2988 RMK AO2 SLP102 T02220222
KSLN 190853Z AUTO 00000KT 10SM CLR 24/23 A2988 RMK AO2 SLP104 T02440228 56006